Strona główna
METAR-TAF:

METAR-TAF

Lotnisko :

Monbetsu, Japonia

Szerokość geograficzna: 44-15N, Długość geograficzna: 143-32E, wysokość: 6 m

Aktualna obserwacja pogody

Raport powstał 11 godziny i 28 minut temu, godzina 07:00 UTC
Wiatr 3 kt od północno-północny zachód, zmienny między zachodnio-północny zachód i północ
Temperatura 20°C
Wilgotność 73%
Ciśnienie 1007 hPa
Widzialność 10 km lub więcej
Mało chmury na wysokości 4000 ft
Rozproszone chmury na wysokości 6000 ft

METAR: RJEB 190700Z 34003KT 300V010 9999 FEW040 SCT060 20/15 Q1007

czas: 03:28 (18:28 UTC)


TAF: brakujący

Obserwacja i prognoza pogody dla ponad 4000 lotnisk (raport METAR i TAF).

Dostępne stacje oznaczono żółtymi i czerwonymi punktami na mapie.

Najedź kursorem aby zobaczyć nazwę stacji.

Kliknij aby zobaczyć obserwacje i prognozy pogody.

Aby zmienić mapę: kliknij na zielony przycisk z czarnym krzyżykiem, aby powiększyć; na zielony przycisk z myślnikiem, aby pomniejszyć; na zielone strzałki, aby przejść do map sąsiednich.


METAR-TAF: